createdAt,value
2024-05-09T00:02:02.332Z,7.51
2024-05-09T00:04:33.052Z,7.48
2024-05-09T00:07:04.177Z,7.40
2024-05-09T00:09:36.340Z,7.32
2024-05-09T00:12:09.254Z,7.12
2024-05-09T00:14:45.015Z,6.85
2024-05-09T00:17:16.834Z,6.96
2024-05-09T00:19:47.129Z,6.83
2024-05-09T00:22:20.961Z,6.70
2024-05-09T00:24:51.439Z,6.66
2024-05-09T00:27:25.420Z,6.58
2024-05-09T00:29:56.446Z,6.50
2024-05-09T00:32:28.931Z,6.69
2024-05-09T00:35:00.081Z,6.47
2024-05-09T00:37:30.886Z,6.24
2024-05-09T00:40:03.600Z,6.13
2024-05-09T00:42:37.307Z,6.07
2024-05-09T00:45:07.844Z,6.03
2024-05-09T00:47:38.329Z,5.98
2024-05-09T00:50:15.977Z,5.87
2024-05-09T00:52:45.863Z,5.81
2024-05-09T00:55:18.615Z,5.79
2024-05-09T00:57:51.049Z,5.76
2024-05-09T01:00:31.411Z,5.73
2024-05-09T01:02:59.649Z,5.64
2024-05-09T01:05:43.209Z,5.61
2024-05-09T01:08:16.620Z,5.58
2024-05-09T01:10:48.663Z,5.56
2024-05-09T01:13:20.062Z,5.48
2024-05-09T01:15:52.792Z,5.45
2024-05-09T01:18:25.591Z,5.38
2024-05-09T01:20:56.212Z,5.34
2024-05-09T01:23:29.059Z,5.33
2024-05-09T01:25:59.903Z,5.26
2024-05-09T01:28:30.178Z,5.17
2024-05-09T01:31:02.118Z,5.11
2024-05-09T01:33:33.674Z,5.08
2024-05-09T01:36:08.862Z,5.04
2024-05-09T01:38:44.299Z,5.02
2024-05-09T01:41:15.838Z,4.98
2024-05-09T01:43:45.905Z,4.93
2024-05-09T01:46:19.347Z,4.88
2024-05-09T01:48:53.960Z,4.85
2024-05-09T01:51:25.698Z,4.83
2024-05-09T01:53:57.261Z,4.76
2024-05-09T01:56:34.336Z,4.73
2024-05-09T01:59:06.066Z,4.70
2024-05-09T02:01:55.834Z,4.71
2024-05-09T02:04:14.068Z,4.66
2024-05-09T02:06:46.184Z,4.60
2024-05-09T02:09:26.158Z,4.48
2024-05-09T02:11:56.078Z,4.45
2024-05-09T02:14:26.951Z,4.48
2024-05-09T02:16:57.597Z,4.44
2024-05-09T02:19:28.498Z,4.41
2024-05-09T02:21:58.143Z,4.39
2024-05-09T02:24:30.365Z,4.39
2024-05-09T02:27:03.791Z,4.33
2024-05-09T02:29:33.676Z,4.27
2024-05-09T02:32:07.591Z,4.28
2024-05-09T02:34:37.816Z,4.24
2024-05-09T02:37:08.474Z,4.29
2024-05-09T02:39:39.121Z,4.17
2024-05-09T02:42:10.995Z,4.31
2024-05-09T02:44:43.253Z,4.15
2024-05-09T02:47:13.951Z,4.08
2024-05-09T02:49:46.132Z,4.02
2024-05-09T02:52:22.928Z,3.96
2024-05-09T02:54:54.017Z,3.94
2024-05-09T02:57:24.187Z,3.97
2024-05-09T02:59:55.706Z,3.90
2024-05-09T03:02:27.730Z,3.89
2024-05-09T03:04:58.909Z,3.88
2024-05-09T03:07:30.201Z,3.87
2024-05-09T03:10:07.365Z,3.91
2024-05-09T03:12:39.347Z,3.81
2024-05-09T03:15:12.431Z,3.76
2024-05-09T03:17:43.181Z,3.76
2024-05-09T03:20:23.289Z,3.80
2024-05-09T03:22:49.474Z,3.80
2024-05-09T03:25:18.345Z,3.77
2024-05-09T03:27:50.901Z,3.74
2024-05-09T03:30:30.919Z,3.75
2024-05-09T03:32:55.100Z,3.73
2024-05-09T03:35:30.540Z,3.74
2024-05-09T03:38:00.879Z,3.77
2024-05-09T03:40:32.923Z,3.79
2024-05-09T03:43:04.365Z,3.74
2024-05-09T03:45:36.307Z,3.77
2024-05-09T03:48:09.120Z,3.76
2024-05-09T03:50:40.367Z,3.76
2024-05-09T03:53:14.875Z,3.96
2024-05-09T03:55:46.140Z,4.11
2024-05-09T03:58:16.920Z,4.32
2024-05-09T04:00:46.933Z,4.89
2024-05-09T04:03:19.317Z,4.89
2024-05-09T04:05:51.505Z,5.00
2024-05-09T04:08:21.764Z,5.14
2024-05-09T04:10:52.203Z,5.18
2024-05-09T04:13:23.715Z,5.18
2024-05-09T04:15:53.796Z,5.15
2024-05-09T04:18:25.228Z,5.18
2024-05-09T04:20:56.961Z,5.21
2024-05-09T04:23:29.330Z,5.25
2024-05-09T04:25:58.507Z,5.28
2024-05-09T04:28:28.276Z,5.32
2024-05-09T04:30:59.919Z,5.31
2024-05-09T04:33:32.789Z,5.61
2024-05-09T04:36:06.277Z,5.75
2024-05-09T04:38:39.139Z,5.87
2024-05-09T04:41:09.953Z,6.08
2024-05-09T04:43:40.987Z,6.26
2024-05-09T04:46:10.987Z,6.56
2024-05-09T04:48:41.259Z,6.87
2024-05-09T04:51:12.645Z,7.36
2024-05-09T04:53:46.137Z,7.79
2024-05-09T04:56:18.832Z,8.30
2024-05-09T04:58:51.816Z,8.85
2024-05-09T05:01:24.520Z,9.48
2024-05-09T05:03:57.253Z,9.68
2024-05-09T05:06:45.926Z,10.02
2024-05-09T05:09:17.633Z,10.58
2024-05-09T05:11:53.166Z,11.04
2024-05-09T05:14:26.583Z,11.48
2024-05-09T05:16:58.460Z,12.08
2024-05-09T05:19:31.091Z,11.78
2024-05-09T05:22:01.490Z,11.76
2024-05-09T05:24:34.383Z,11.91
2024-05-09T05:27:04.602Z,12.39
2024-05-09T05:29:34.958Z,12.63
2024-05-09T05:32:08.687Z,13.22
2024-05-09T05:34:42.121Z,13.70
2024-05-09T05:37:13.982Z,13.70
2024-05-09T05:39:44.279Z,14.13
2024-05-09T05:42:17.423Z,13.74
2024-05-09T05:44:48.244Z,13.74
2024-05-09T05:47:19.640Z,14.14
2024-05-09T05:49:49.675Z,14.19
2024-05-09T05:52:20.368Z,14.92
2024-05-09T05:54:52.048Z,15.01
2024-05-09T05:57:22.959Z,15.40
2024-05-09T05:59:55.619Z,15.89
2024-05-09T06:02:26.863Z,15.89
2024-05-09T06:04:58.612Z,15.69
2024-05-09T06:07:31.226Z,15.30
2024-05-09T06:10:09.220Z,15.30
2024-05-09T06:12:41.156Z,15.51
2024-05-09T06:15:12.067Z,14.49
2024-05-09T06:17:45.116Z,14.37
2024-05-09T06:20:20.799Z,14.48
2024-05-09T06:22:47.803Z,14.98
2024-05-09T06:25:17.802Z,14.98
2024-05-09T06:27:50.252Z,14.06
2024-05-09T06:30:30.063Z,14.18
2024-05-09T06:32:59.586Z,15.06
2024-05-09T06:35:35.566Z,15.06
2024-05-09T06:38:11.154Z,15.24
2024-05-09T06:40:43.872Z,15.95
2024-05-09T06:43:18.717Z,15.95
2024-05-09T06:45:52.966Z,14.58
2024-05-09T06:48:24.987Z,14.28
2024-05-09T06:50:55.574Z,14.50
2024-05-09T06:53:28.172Z,14.50
2024-05-09T06:55:59.239Z,14.90
2024-05-09T06:58:31.048Z,14.86
2024-05-09T07:01:04.322Z,15.86
2024-05-09T07:03:36.298Z,15.86
2024-05-09T07:06:09.225Z,15.40
2024-05-09T07:08:42.269Z,15.38
2024-05-09T07:11:12.412Z,15.32
2024-05-09T07:13:44.203Z,14.77
2024-05-09T07:16:16.092Z,15.00
2024-05-09T07:18:48.369Z,15.28
2024-05-09T07:21:20.604Z,15.26
2024-05-09T07:23:51.156Z,15.41
2024-05-09T07:26:26.766Z,15.49
2024-05-09T07:29:00.116Z,15.49
2024-05-09T07:31:31.772Z,16.03
2024-05-09T07:34:03.094Z,15.98
2024-05-09T07:36:33.175Z,15.98
2024-05-09T07:39:07.445Z,15.97
2024-05-09T07:41:38.381Z,16.15
2024-05-09T07:44:11.777Z,15.97
2024-05-09T07:47:47.943Z,16.09
2024-05-09T07:51:31.286Z,16.18
2024-05-09T07:53:20.951Z,16.22
2024-05-09T07:54:26.802Z,15.71
2024-05-09T07:57:00.694Z,15.71
2024-05-09T07:59:37.019Z,15.89
2024-05-09T08:02:08.077Z,16.64
2024-05-09T08:04:52.186Z,15.56
2024-05-09T08:07:26.595Z,15.34
2024-05-09T08:09:58.765Z,15.80
2024-05-09T08:12:28.706Z,16.19
2024-05-09T08:15:01.105Z,16.43
2024-05-09T08:17:31.215Z,16.62
2024-05-09T08:20:03.677Z,16.77
2024-05-09T08:22:39.386Z,17.32
2024-05-09T08:25:13.454Z,17.21
2024-05-09T08:27:44.314Z,17.35
2024-05-09T08:30:21.982Z,17.29
2024-05-09T08:32:48.349Z,17.51
2024-05-09T08:35:19.530Z,17.39
2024-05-09T08:37:53.718Z,17.30
2024-05-09T08:40:30.891Z,17.16
2024-05-09T08:42:58.570Z,17.51
2024-05-09T08:45:30.246Z,17.59
2024-05-09T08:48:12.710Z,18.01
2024-05-09T08:50:44.995Z,18.08
2024-05-09T08:53:16.926Z,17.15
2024-05-09T08:56:03.347Z,17.97
2024-05-09T08:58:36.688Z,18.86
2024-05-09T09:01:08.846Z,18.72
2024-05-09T09:03:41.219Z,18.85
2024-05-09T09:06:20.189Z,18.59
2024-05-09T09:08:50.480Z,18.30
2024-05-09T09:11:22.368Z,18.85
2024-05-09T09:13:57.362Z,18.23
2024-05-09T09:16:37.671Z,18.26
2024-05-09T09:19:07.965Z,18.47
2024-05-09T09:21:42.871Z,19.08
2024-05-09T09:24:15.572Z,18.91
2024-05-09T09:26:47.461Z,18.97
2024-05-09T09:29:20.122Z,18.97
2024-05-09T09:32:04.663Z,18.69
2024-05-09T09:34:36.594Z,18.89
2024-05-09T09:37:14.143Z,19.77
2024-05-09T09:39:49.029Z,19.46
2024-05-09T09:42:19.046Z,20.06
2024-05-09T09:45:01.948Z,20.13
2024-05-09T09:47:26.620Z,19.41
2024-05-09T09:49:58.521Z,19.62
2024-05-09T09:52:29.693Z,17.91
2024-05-09T09:55:02.031Z,18.87
2024-05-09T09:57:38.345Z,19.85
2024-05-09T10:00:11.933Z,19.16
2024-05-09T10:02:43.883Z,19.67
2024-05-09T10:05:18.616Z,19.80
2024-05-09T10:07:50.699Z,19.85
2024-05-09T10:10:32.620Z,19.74
2024-05-09T10:13:09.666Z,20.14
2024-05-09T10:15:49.603Z,19.80
2024-05-09T10:18:28.259Z,20.04
2024-05-09T10:20:56.500Z,20.24
2024-05-09T10:23:34.617Z,19.63
2024-05-09T10:26:06.361Z,19.70
2024-05-09T10:28:39.638Z,19.41
2024-05-09T10:31:11.908Z,20.10
2024-05-09T10:33:52.404Z,20.08
2024-05-09T10:36:25.469Z,20.94
2024-05-09T10:38:56.116Z,20.74
2024-05-09T10:41:31.553Z,19.49
2024-05-09T10:44:04.042Z,19.96
2024-05-09T10:46:34.177Z,19.48
2024-05-09T10:49:07.895Z,19.11
2024-05-09T10:51:42.230Z,19.07
2024-05-09T10:54:13.935Z,18.73
2024-05-09T10:56:45.652Z,19.30
2024-05-09T10:59:15.733Z,19.11
2024-05-09T11:01:51.832Z,19.53
2024-05-09T11:04:24.037Z,19.44
2024-05-09T11:06:56.973Z,19.97
2024-05-09T11:09:27.387Z,19.76
2024-05-09T11:11:58.268Z,20.62
2024-05-09T11:14:29.645Z,20.73
2024-05-09T11:17:07.567Z,21.51
2024-05-09T11:19:44.656Z,20.52
2024-05-09T11:22:15.112Z,20.85
2024-05-09T11:24:45.163Z,20.93
2024-05-09T11:27:15.975Z,20.26
2024-05-09T11:29:47.614Z,20.25
2024-05-09T11:32:22.548Z,19.96
2024-05-09T11:35:03.366Z,20.45
2024-05-09T11:37:53.224Z,20.79
2024-05-09T11:40:25.902Z,20.64
2024-05-09T11:42:59.126Z,20.93
2024-05-09T11:45:37.127Z,21.27
2024-05-09T11:48:27.461Z,21.09
2024-05-09T11:54:36.740Z,21.33
2024-05-09T11:57:08.722Z,21.93
2024-05-09T11:59:41.015Z,21.09
2024-05-09T12:02:11.581Z,21.13
2024-05-09T12:04:46.688Z,21.29
2024-05-09T12:07:21.680Z,20.87
2024-05-09T12:09:55.412Z,21.46
2024-05-09T12:12:28.613Z,21.60
2024-05-09T12:14:58.586Z,20.13
2024-05-09T12:17:30.984Z,20.40
2024-05-09T12:20:00.889Z,19.75
2024-05-09T12:22:31.941Z,20.17
2024-05-09T12:25:03.850Z,20.17
2024-05-09T12:27:36.698Z,20.50
2024-05-09T12:30:11.538Z,20.88
2024-05-09T12:32:40.916Z,21.26
2024-05-09T12:35:13.996Z,20.98
2024-05-09T12:37:44.864Z,21.09
2024-05-09T12:40:26.551Z,19.86
2024-05-09T12:42:52.585Z,19.86
2024-05-09T12:45:23.500Z,19.67
2024-05-09T12:47:55.284Z,19.62
2024-05-09T12:50:33.248Z,19.88
2024-05-09T12:53:02.169Z,19.79
2024-05-09T12:55:44.482Z,20.50
2024-05-09T12:58:09.233Z,20.06
2024-05-09T13:00:43.090Z,19.93
2024-05-09T13:03:17.635Z,19.55
2024-05-09T13:05:50.416Z,19.52
2024-05-09T13:08:26.015Z,19.53
2024-05-09T13:10:57.592Z,19.60
2024-05-09T13:13:29.145Z,20.04
2024-05-09T13:16:02.457Z,19.67
2024-05-09T13:18:43.844Z,19.97
2024-05-09T13:21:13.681Z,19.68
2024-05-09T13:23:44.076Z,19.60
2024-05-09T13:26:15.844Z,19.27
2024-05-09T13:28:47.455Z,19.70
2024-05-09T13:31:20.698Z,20.01
2024-05-09T13:33:52.713Z,20.38
2024-05-09T13:36:23.153Z,19.86
2024-05-09T13:38:55.416Z,20.44
2024-05-09T13:41:27.029Z,20.44
2024-05-09T13:43:58.448Z,21.18
2024-05-09T13:46:28.453Z,20.99
2024-05-09T13:49:01.414Z,21.18
2024-05-09T13:51:31.477Z,20.81
2024-05-09T13:54:03.648Z,21.27
2024-05-09T13:56:34.153Z,20.28
2024-05-09T13:59:09.775Z,19.94
2024-05-09T14:01:40.573Z,19.86
2024-05-09T14:04:16.856Z,20.49
2024-05-09T14:06:47.223Z,20.72
2024-05-09T14:09:18.992Z,20.91
2024-05-09T14:11:49.218Z,20.81
2024-05-09T14:14:21.341Z,20.78
2024-05-09T14:16:53.862Z,20.25
2024-05-09T14:19:27.631Z,20.22
2024-05-09T14:21:58.004Z,20.95
2024-05-09T14:24:28.347Z,20.30
2024-05-09T14:26:58.476Z,20.56
2024-05-09T14:29:29.459Z,20.92
2024-05-09T14:32:00.409Z,20.87
2024-05-09T14:34:32.748Z,20.47
2024-05-09T14:37:05.715Z,20.51
2024-05-09T14:39:39.521Z,20.62
2024-05-09T14:42:12.631Z,20.93
2024-05-09T14:44:43.714Z,20.34
2024-05-09T14:47:16.400Z,20.83
2024-05-09T14:49:46.613Z,20.58
2024-05-09T14:52:23.727Z,20.50
2024-05-09T14:55:00.227Z,20.49
2024-05-09T14:57:30.265Z,20.47
2024-05-09T15:00:00.993Z,21.00
2024-05-09T15:02:33.864Z,20.26
2024-05-09T15:05:07.536Z,20.30
2024-05-09T15:07:39.884Z,20.13
2024-05-09T15:10:26.221Z,20.27
2024-05-09T15:12:48.964Z,20.20
2024-05-09T15:15:20.991Z,20.39
2024-05-09T15:17:59.499Z,20.57
2024-05-09T15:20:34.822Z,20.79
2024-05-09T15:23:01.524Z,20.19
2024-05-09T15:25:34.018Z,20.02
2024-05-09T15:28:05.005Z,20.11
2024-05-09T15:30:39.100Z,20.13
2024-05-09T15:33:12.851Z,20.01
2024-05-09T15:35:46.950Z,19.90
2024-05-09T15:38:19.953Z,19.72
2024-05-09T15:40:52.122Z,19.51
2024-05-09T15:43:22.243Z,19.68
2024-05-09T15:45:53.997Z,19.40
2024-05-09T15:48:26.444Z,19.83
2024-05-09T15:51:00.991Z,19.45
2024-05-09T15:53:31.494Z,19.32
2024-05-09T15:56:02.796Z,19.56
2024-05-09T15:58:35.174Z,19.25
2024-05-09T16:01:06.434Z,19.33
2024-05-09T16:03:38.142Z,19.47
2024-05-09T16:06:09.505Z,19.10
2024-05-09T16:08:39.551Z,19.12
2024-05-09T16:11:10.486Z,18.93
2024-05-09T16:13:40.531Z,18.96
2024-05-09T16:16:10.965Z,19.00
2024-05-09T16:18:40.675Z,18.02
2024-05-09T16:21:10.623Z,18.23
2024-05-09T16:23:40.692Z,18.25
2024-05-09T16:26:10.831Z,18.17
2024-05-09T16:28:43.059Z,18.04
2024-05-09T16:31:14.016Z,18.20
2024-05-09T16:33:44.457Z,18.15
2024-05-09T16:36:17.030Z,18.43
2024-05-09T16:38:48.520Z,18.43
2024-05-09T16:41:20.547Z,18.48
2024-05-09T16:43:51.194Z,18.31
2024-05-09T16:46:23.133Z,18.32
2024-05-09T16:48:55.826Z,18.42
2024-05-09T16:51:26.989Z,18.50
2024-05-09T16:53:56.905Z,18.57
2024-05-09T16:56:27.227Z,18.39
2024-05-09T16:58:58.061Z,18.39
2024-05-09T17:01:29.833Z,18.16
2024-05-09T17:04:00.982Z,18.23
2024-05-09T17:06:31.987Z,18.27
2024-05-09T17:09:08.268Z,18.23
2024-05-09T17:11:36.453Z,18.32
2024-05-09T17:14:07.286Z,18.15
2024-05-09T17:16:38.083Z,17.86
2024-05-09T17:19:09.980Z,17.86
2024-05-09T17:21:42.347Z,17.66
2024-05-09T17:24:15.354Z,17.56
2024-05-09T17:26:46.038Z,17.27
2024-05-09T17:29:18.668Z,17.22
2024-05-09T17:31:54.610Z,17.04
2024-05-09T17:34:28.941Z,17.20
2024-05-09T17:37:01.167Z,16.94
2024-05-09T17:39:32.407Z,16.83
2024-05-09T17:42:05.561Z,16.78
2024-05-09T17:44:37.514Z,16.71
2024-05-09T17:47:08.425Z,16.37
2024-05-09T17:49:41.752Z,16.22
2024-05-09T17:52:17.408Z,16.12
2024-05-09T17:54:54.418Z,15.96
2024-05-09T17:57:26.571Z,15.83
2024-05-09T17:59:56.484Z,15.51
2024-05-09T18:02:30.477Z,15.48
2024-05-09T18:05:03.204Z,15.30
2024-05-09T18:07:42.470Z,15.09
2024-05-09T18:10:19.497Z,14.92
2024-05-09T18:12:45.875Z,14.82
2024-05-09T18:15:15.666Z,14.64
2024-05-09T18:17:45.893Z,14.52
2024-05-09T18:20:24.220Z,14.26
2024-05-09T18:22:52.318Z,14.07
2024-05-09T18:25:27.746Z,13.96
2024-05-09T18:27:59.863Z,13.57
2024-05-09T18:30:35.658Z,13.57
2024-05-09T18:33:07.743Z,13.33
2024-05-09T18:35:41.280Z,13.33
2024-05-09T18:38:12.125Z,13.15
2024-05-09T18:40:43.995Z,12.99
2024-05-09T18:43:14.235Z,12.84
2024-05-09T18:45:44.961Z,12.67
2024-05-09T18:48:17.371Z,12.57
2024-05-09T18:50:51.261Z,12.34
2024-05-09T18:53:22.821Z,11.99
2024-05-09T18:55:55.298Z,11.99
2024-05-09T18:58:34.503Z,11.92
2024-05-09T19:01:11.282Z,11.82
2024-05-09T19:03:50.715Z,11.58
2024-05-09T19:06:24.628Z,11.58
2024-05-09T19:12:46.744Z,11.11
2024-05-09T19:15:19.622Z,11.11
2024-05-09T19:18:06.394Z,11.01
2024-05-09T19:20:39.232Z,10.91
2024-05-09T19:23:14.572Z,10.84
2024-05-09T19:25:49.294Z,10.62
2024-05-09T19:28:21.741Z,10.48
2024-05-09T19:30:54.023Z,10.42
2024-05-09T19:33:25.016Z,10.35
2024-05-09T19:35:55.790Z,10.35
2024-05-09T19:38:26.250Z,10.26
2024-05-09T19:40:59.288Z,10.13
2024-05-09T19:43:35.367Z,10.01
2024-05-09T19:46:08.653Z,9.94
2024-05-09T19:48:41.827Z,9.87
2024-05-09T19:51:17.243Z,9.78
2024-05-09T19:53:50.401Z,9.69
2024-05-09T19:56:22.031Z,9.56
2024-05-09T19:58:55.202Z,9.56
2024-05-09T20:01:31.632Z,9.39
2024-05-09T20:04:03.786Z,9.36
2024-05-09T20:06:35.275Z,9.36
2024-05-09T20:09:05.900Z,9.29
2024-05-09T20:11:41.816Z,9.14
2024-05-09T20:14:13.651Z,9.10
2024-05-09T20:16:46.378Z,9.05
2024-05-09T20:19:16.602Z,9.05
2024-05-09T20:21:47.222Z,8.95
2024-05-09T20:24:19.498Z,8.88
2024-05-09T20:26:52.653Z,8.80
2024-05-09T20:29:23.383Z,8.75
2024-05-09T20:31:54.000Z,8.75
2024-05-09T20:37:15.291Z,8.65
2024-05-09T20:39:45.655Z,8.58
2024-05-09T20:42:18.071Z,8.44
2024-05-09T20:44:48.332Z,8.44
2024-05-09T20:47:21.024Z,8.40
2024-05-09T20:49:53.843Z,8.33
2024-05-09T20:52:24.188Z,8.28
2024-05-09T20:54:55.043Z,8.15
2024-05-09T20:57:26.240Z,8.07
2024-05-09T21:00:00.015Z,7.95
2024-05-09T21:02:30.571Z,7.95
2024-05-09T21:05:01.105Z,7.88
2024-05-09T21:07:35.985Z,7.84
2024-05-09T21:10:15.248Z,7.78
2024-05-09T21:12:42.099Z,7.69
2024-05-09T21:15:12.041Z,7.66
2024-05-09T21:17:44.252Z,7.55
2024-05-09T21:20:20.310Z,7.52
2024-05-09T21:22:49.521Z,7.41
2024-05-09T21:25:21.546Z,7.41
2024-05-09T21:27:54.903Z,7.39
2024-05-09T21:30:37.063Z,7.35
2024-05-09T21:33:00.992Z,7.25
2024-05-09T21:35:34.135Z,7.19
2024-05-09T21:38:06.024Z,7.12
2024-05-09T21:40:37.914Z,7.06
2024-05-09T21:43:10.885Z,7.01
2024-05-09T21:45:42.928Z,6.97
2024-05-09T21:48:14.087Z,6.93
2024-05-09T21:50:46.584Z,6.89
2024-05-09T21:53:17.244Z,6.82
2024-05-09T21:55:48.214Z,6.75
2024-05-09T21:58:19.122Z,6.70
2024-05-09T22:00:54.179Z,6.60
2024-05-09T22:03:24.713Z,6.60
2024-05-09T22:05:55.322Z,6.54
2024-05-09T22:08:25.668Z,6.46
2024-05-09T22:10:57.395Z,6.45
2024-05-09T22:13:29.700Z,6.45
2024-05-09T22:15:59.459Z,6.42
2024-05-09T22:18:32.872Z,6.36
2024-05-09T22:21:05.494Z,6.28
2024-05-09T22:23:37.102Z,6.28
2024-05-09T22:26:09.135Z,6.21
2024-05-09T22:28:41.203Z,6.14
2024-05-09T22:31:12.199Z,6.11
2024-05-09T22:33:46.285Z,6.05
2024-05-09T22:36:15.035Z,5.99
2024-05-09T22:38:46.077Z,5.94
2024-05-09T22:41:19.049Z,5.86
2024-05-09T22:43:49.954Z,5.85
2024-05-09T22:46:23.906Z,5.86
2024-05-09T22:48:54.254Z,5.86
2024-05-09T22:51:24.789Z,5.80
2024-05-09T22:53:54.932Z,5.73
2024-05-09T22:56:30.639Z,5.73
2024-05-09T22:59:02.397Z,5.70
2024-05-09T23:01:31.545Z,5.68
2024-05-09T23:04:03.384Z,5.67
2024-05-09T23:06:33.674Z,5.62
2024-05-09T23:09:08.201Z,5.59
2024-05-09T23:11:44.163Z,5.58
2024-05-09T23:14:15.981Z,5.58
2024-05-09T23:16:49.600Z,5.52
2024-05-09T23:19:23.265Z,5.47
2024-05-09T23:21:58.772Z,5.40
2024-05-09T23:24:28.966Z,5.38
2024-05-09T23:27:00.678Z,5.34
2024-05-09T23:29:32.815Z,5.28
2024-05-09T23:32:04.444Z,5.27
2024-05-09T23:34:35.265Z,5.25
2024-05-09T23:37:04.931Z,5.17
2024-05-09T23:39:35.236Z,5.13
2024-05-09T23:42:06.425Z,5.08
2024-05-09T23:44:37.420Z,5.04
2024-05-09T23:47:10.596Z,5.01
2024-05-09T23:49:40.479Z,4.96
2024-05-09T23:52:13.107Z,4.94
2024-05-09T23:54:43.638Z,4.90
2024-05-09T23:57:15.308Z,5.07
2024-05-09T23:59:46.373Z,4.85
